Time;durP1;ratioP1;P1;durP2;ratioP2;P2;SDS_P1;SDS_P2;PMS_P1;PMS_P2;Temp;Humidity;BMP_temperature;BMP_pressure;BME280_temperature;BME280_humidity;BME280_pressure;Samples;Min_cycle;Max_cycle;Signal;HPM_P1;HPM_P2
2023/04/10 00:00:30;;;;;;;15.88;13.07;;;;;;;14.46;100.00;100933.13;2071732;28;20058;-77
2023/04/10 00:01:53;;;;;;;20.98;13.35;;;;;;;14.48;100.00;100929.59;2069023;28;20533;-77
2023/04/10 00:03:16;;;;;;;17.00;13.93;;;;;;;14.51;100.00;100934.00;2077391;28;20049;-77
2023/04/10 00:04:38;;;;;;;19.00;13.77;;;;;;;14.55;100.00;100923.41;2079815;28;20058;-78
2023/04/10 00:06:00;;;;;;;19.95;14.10;;;;;;;14.57;100.00;100926.09;2072794;28;20046;-78
2023/04/10 00:07:22;;;;;;;18.23;13.95;;;;;;;14.56;100.00;100925.19;2084253;28;20276;-77
2023/04/10 00:08:44;;;;;;;18.13;13.05;;;;;;;14.53;100.00;100930.47;2073056;28;20434;-77
2023/04/10 00:10:07;;;;;;;16.80;12.95;;;;;;;14.54;100.00;100931.38;2067697;28;20137;-77
2023/04/10 00:11:30;;;;;;;;;;;;;;;14.51;100.00;100932.25;2068371;28;20041;-78
2023/04/10 00:12:54;;;;;;;15.05;11.73;;;;;;;14.51;100.00;100926.03;2073917;28;20400;-78
2023/04/10 00:14:21;;;;;;;19.15;13.20;;;;;;;14.49;100.00;100920.75;2078364;28;20390;-78
2023/04/10 00:15:43;;;;;;;18.77;12.80;;;;;;;14.50;100.00;100929.59;2079158;28;20076;-77
2023/04/10 00:17:05;;;;;;;16.92;12.65;;;;;;;14.49;100.00;100923.41;2072557;28;20045;-78
2023/04/10 00:18:28;;;;;;;17.92;13.07;;;;;;;14.50;100.00;100921.63;2070170;28;20056;-77
2023/04/10 00:19:50;;;;;;;14.63;12.13;;;;;;;14.50;100.00;100925.19;2070309;28;20054;-78
2023/04/10 00:21:12;;;;;;;15.90;12.80;;;;;;;14.44;100.00;100919.81;2070104;28;20124;-77
2023/04/10 00:22:35;;;;;;;16.20;11.82;;;;;;;14.40;100.00;100919.81;2073999;28;20038;-77
2023/04/10 00:23:56;;;;;;;13.80;11.73;;;;;;;14.39;100.00;100921.59;2073017;28;20061;-77
2023/04/10 00:25:18;;;;;;;12.63;9.63;;;;;;;14.38;100.00;100917.16;2069810;28;20038;-77
2023/04/10 00:26:41;;;;;;;15.70;11.48;;;;;;;14.40;100.00;100911.84;2073510;28;20050;-78
2023/04/10 00:28:05;;;;;;;16.55;13.20;;;;;;;14.43;100.00;100911.88;2071778;28;20053;-77
2023/04/10 00:29:26;;;;;;;13.52;10.55;;;;;;;14.44;100.00;100906.53;2067198;28;20068;-77
2023/04/10 00:30:49;;;;;;;15.75;13.10;;;;;;;14.44;100.00;100913.66;2069190;28;20540;-77
2023/04/10 00:32:11;;;;;;;20.10;14.07;;;;;;;14.43;100.00;100914.53;2075864;28;20053;-77
2023/04/10 00:33:32;;;;;;;15.60;11.82;;;;;;;14.42;100.00;100911.00;2079609;28;20045;-77
2023/04/10 00:34:54;;;;;;;14.98;12.15;;;;;;;14.41;100.00;100910.97;2074064;28;20049;-78
2023/04/10 00:36:17;;;;;;;11.73;10.00;;;;;;;14.38;100.00;100903.00;2064657;28;20069;-77
2023/04/10 00:37:40;;;;;;;13.15;9.75;;;;;;;14.38;100.00;100903.00;2068691;28;20112;-78
2023/04/10 00:39:01;;;;;;;12.65;10.77;;;;;;;14.37;100.00;100904.75;2063023;28;20042;-77
2023/04/10 00:40:24;;;;;;;14.35;10.95;;;;;;;14.36;100.00;100903.88;2075701;28;20096;-77
2023/04/10 00:41:45;;;;;;;19.92;13.50;;;;;;;14.36;100.00;100901.22;2078287;28;20046;-77
2023/04/10 00:43:09;;;;;;;38.58;24.27;;;;;;;14.36;100.00;100905.63;2069733;28;20048;-76
2023/04/10 00:44:30;;;;;;;24.48;16.58;;;;;;;14.35;100.00;100901.19;2070335;28;20046;-77
2023/04/10 00:45:53;;;;;;;20.42;15.07;;;;;;;14.33;100.00;100898.53;2059478;28;20082;-77
2023/04/10 00:47:15;;;;;;;28.92;19.05;;;;;;;14.36;100.00;100905.63;2064026;28;20042;-76
2023/04/10 00:48:37;;;;;;;;;;;;;;;14.35;100.00;100903.84;2066295;28;20054;-77
2023/04/10 00:49:58;;;;;;;;;;;;;;;14.33;100.00;100898.53;2069885;28;19967;-77
2023/04/10 00:51:22;;;;;;;18.35;14.05;;;;;;;14.32;100.00;100902.06;2075501;28;19948;-77
2023/04/10 00:52:43;;;;;;;17.88;13.50;;;;;;;14.35;100.00;100902.09;2062413;28;20057;-77
2023/04/10 00:54:06;;;;;;;;;;;;;;;14.35;100.00;100896.78;2070292;28;20065;-77
2023/04/10 00:55:28;;;;;;;17.85;14.02;;;;;;;14.37;100.00;100888.81;2065576;28;20414;-77
2023/04/10 00:56:49;;;;;;;19.20;15.20;;;;;;;14.44;100.00;100892.41;2077082;28;20532;-77
2023/04/10 00:58:13;;;;;;;17.65;12.52;;;;;;;14.49;100.00;100890.63;2076937;28;20041;-77
2023/04/10 00:59:35;;;;;;;18.55;13.45;;;;;;;14.52;100.00;100887.97;2072431;28;20549;-77
2023/04/10 01:00:58;;;;;;;28.60;18.90;;;;;;;14.53;100.00;100903.03;2074781;28;20557;-77
2023/04/10 01:02:20;;;;;;;32.83;21.40;;;;;;;14.54;100.00;100899.50;2071281;28;20045;-77
2023/04/10 01:03:43;;;;;;;44.83;28.20;;;;;;;14.56;100.00;100903.06;2070875;28;20094;-76
2023/04/10 01:05:06;;;;;;;24.92;18.75;;;;;;;14.58;100.00;100896.84;2080374;28;20048;-77
2023/04/10 01:06:47;;;;;;;19.55;13.02;;;;;;;14.61;100.00;100893.31;2072743;28;20069;-77
2023/04/10 01:08:12;;;;;;;19.88;12.80;;;;;;;14.63;100.00;100894.22;2078968;28;20053;-77
2023/04/10 01:09:47;;;;;;;16.52;12.20;;;;;;;14.69;100.00;100889.78;2074533;28;20128;-77
2023/04/10 01:11:14;;;;;;;16.58;12.15;;;;;;;14.75;100.00;100896.88;2080017;28;20069;-77
2023/04/10 01:12:50;;;;;;;14.65;11.25;;;;;;;14.77;100.00;100882.69;2085737;28;20041;-77
2023/04/10 01:14:23;;;;;;;15.73;11.13;;;;;;;14.79;100.00;100885.34;2080051;28;20515;-77
2023/04/10 01:15:48;;;;;;;;;;;;;;;14.77;100.00;100880.94;2078705;28;20056;-77
2023/04/10 01:17:12;;;;;;;13.85;10.40;;;;;;;14.77;100.00;100889.75;2068646;28;20343;-77
2023/04/10 01:18:41;;;;;;;16.30;11.27;;;;;;;14.78;100.00;100886.22;2081603;28;20045;-77
2023/04/10 01:20:08;;;;;;;12.27;10.13;;;;;;;14.79;100.00;100887.09;2064482;28;20077;-77
2023/04/10 01:21:34;;;;;;;12.10;10.25;;;;;;;14.79;100.00;100887.09;2078506;28;20054;-78
2023/04/10 01:23:25;;;;;;;12.25;9.85;;;;;;;14.79;100.00;100888.00;2067075;28;20045;-80
2023/04/10 01:25:02;;;;;;;12.07;9.82;;;;;;;14.77;100.00;100882.69;2064404;28;20482;-77
2023/04/10 01:26:53;;;;;;;14.90;8.60;;;;;;;14.79;100.00;100880.03;2063443;28;20153;-77
2023/04/10 01:28:59;;;;;;;13.57;9.25;;;;;;;14.79;100.00;100876.47;2072538;28;20568;-78
2023/04/10 01:30:24;;;;;;;11.95;9.00;;;;;;;14.77;100.00;100881.78;2079522;28;20476;-77
2023/04/10 01:31:52;;;;;;;11.68;9.07;;;;;;;14.78;100.00;100878.25;2072372;28;20050;-77
2023/04/10 01:33:17;;;;;;;11.93;9.13;;;;;;;14.79;100.00;100874.72;2069573;28;20662;-77
2023/04/10 01:34:43;;;;;;;11.10;8.90;;;;;;;14.81;100.00;100872.06;2075360;28;20045;-77
2023/04/10 01:36:07;;;;;;;11.57;9.52;;;;;;;14.82;100.00;100877.38;2080324;28;20049;-77
2023/04/10 01:37:32;;;;;;;12.65;9.23;;;;;;;14.84;100.00;100872.94;2069693;28;20141;-77
2023/04/10 01:38:56;;;;;;;11.68;8.93;;;;;;;14.83;100.00;100872.97;2066856;28;20076;-77
2023/04/10 01:40:21;;;;;;;11.13;8.98;;;;;;;14.83;100.00;100876.50;2061918;28;20056;-77
2023/04/10 01:41:44;;;;;;;13.48;9.70;;;;;;;14.84;100.00;100872.94;2067334;28;20062;-77
2023/04/10 01:43:10;;;;;;;14.02;9.60;;;;;;;14.85;100.00;100877.38;2067787;28;20065;-77
2023/04/10 01:44:46;;;;;;;15.35;9.88;;;;;;;14.86;100.00;100864.97;2069972;28;20263;-77
2023/04/10 01:46:09;;;;;;;12.13;9.55;;;;;;;14.87;100.00;100875.59;2070335;28;20049;-77
2023/04/10 01:47:31;;;;;;;12.48;8.95;;;;;;;14.88;100.00;100869.41;2068642;28;20058;-77
2023/04/10 01:48:55;;;;;;;10.25;7.68;;;;;;;14.88;100.00;100877.38;2075129;28;20068;-77
2023/04/10 01:50:18;;;;;;;11.43;8.07;;;;;;;14.87;100.00;100869.41;2064032;28;20046;-77
2023/04/10 01:51:40;;;;;;;10.77;8.10;;;;;;;14.88;100.00;100871.19;2067200;28;20812;-77
2023/04/10 01:53:07;;;;;;;10.63;8.07;;;;;;;14.87;100.00;100867.63;2062221;28;20042;-77
2023/04/10 01:54:31;;;;;;;11.77;8.55;;;;;;;14.86;100.00;100867.63;2059032;28;20465;-78
2023/04/10 01:55:54;;;;;;;13.30;9.48;;;;;;;14.85;100.00;100868.50;2067531;28;20089;-77
2023/04/10 01:57:17;;;;;;;10.82;8.40;;;;;;;14.85;100.00;100874.72;2061562;28;20038;-79
2023/04/10 01:58:47;;;;;;;13.17;9.13;;;;;;;14.85;100.00;100872.06;2061116;28;20046;-77
2023/04/10 02:00:12;;;;;;;11.13;8.18;;;;;;;14.87;100.00;100870.28;2061133;28;20318;-77
2023/04/10 02:01:37;;;;;;;11.35;8.23;;;;;;;14.89;100.00;100871.19;2076635;28;20041;-77
2023/04/10 02:02:59;;;;;;;13.70;9.48;;;;;;;14.89;100.00;100873.84;2073713;28;20221;-77
2023/04/10 02:04:21;;;;;;;11.07;9.10;;;;;;;14.89;100.00;100867.63;2078151;28;20049;-77
2023/04/10 02:05:54;;;;;;;16.45;10.55;;;;;;;14.91;100.00;100866.72;2085819;28;20044;-77
2023/04/10 02:07:22;;;;;;;12.07;9.25;;;;;;;14.90;100.00;100859.63;2079060;28;20124;-77
2023/04/10 02:08:52;;;;;;;10.15;8.18;;;;;;;14.87;100.00;100869.41;2077613;28;20049;-77
2023/04/10 02:10:22;;;;;;;13.68;9.57;;;;;;;14.85;100.00;100861.41;2070575;28;20053;-77
2023/04/10 02:11:55;;;;;;;12.68;8.52;;;;;;;14.85;100.00;100861.41;2064114;28;20046;-77
2023/04/10 02:13:20;;;;;;;11.75;8.98;;;;;;;14.87;100.00;100866.75;2077153;28;20571;-77
2023/04/10 02:14:47;;;;;;;10.98;8.52;;;;;;;14.88;100.00;100858.78;2066786;28;20044;-77
2023/04/10 02:16:13;;;;;;;12.63;7.78;;;;;;;14.90;100.00;100862.28;2078076;28;20103;-77
2023/04/10 02:17:37;;;;;;;13.30;8.25;;;;;;;14.91;100.00;100860.53;2077887;28;20049;-77
2023/04/10 02:18:59;;;;;;;13.43;9.07;;;;;;;14.92;100.00;100857.00;2061553;28;20061;-77
2023/04/10 02:20:23;;;;;;;12.90;9.30;;;;;;;14.93;100.00;100851.69;2066518;28;20137;-76
2023/04/10 02:21:46;;;;;;;12.05;8.13;;;;;;;14.93;100.00;100849.03;2063852;28;20093;-77
2023/04/10 02:23:10;;;;;;;12.50;8.95;;;;;;;14.92;100.00;100857.00;2064521;28;20061;-77
2023/04/10 02:24:34;;;;;;;14.65;9.48;;;;;;;14.89;100.00;100857.00;2066326;28;20155;-77
2023/04/10 02:25:57;;;;;;;12.95;9.55;;;;;;;14.87;100.00;100861.44;2072958;28;20194;-77
2023/04/10 02:27:26;;;;;;;13.50;9.52;;;;;;;14.83;100.00;100852.59;2075094;28;20046;-77
2023/04/10 02:28:49;;;;;;;14.43;10.02;;;;;;;14.80;100.00;100851.69;2069187;28;20034;-76
2023/04/10 02:30:12;;;;;;;16.50;9.40;;;;;;;14.77;100.00;100857.88;2077366;28;20132;-77
2023/04/10 02:31:36;;;;;;;13.15;8.57;;;;;;;14.78;100.00;100851.69;2063360;28;20105;-77
2023/04/10 02:32:59;;;;;;;13.43;10.27;;;;;;;14.77;100.00;100849.91;2069226;28;20046;-77
2023/04/10 02:34:22;;;;;;;11.43;9.57;;;;;;;14.77;100.00;100850.78;2060537;28;20034;-77
2023/04/10 02:35:45;;;;;;;12.43;8.77;;;;;;;14.76;100.00;100856.13;2069105;28;20144;-77
2023/04/10 02:37:07;;;;;;;10.75;8.73;;;;;;;14.77;100.00;100854.34;2073611;28;20472;-77
2023/04/10 02:38:28;;;;;;;9.95;8.60;;;;;;;14.75;100.00;100852.59;2077196;28;20429;-77
2023/04/10 02:39:51;;;;;;;12.70;8.80;;;;;;;14.76;100.00;100848.16;2067948;28;20069;-77
2023/04/10 02:41:14;;;;;;;10.27;8.13;;;;;;;14.78;100.00;100854.34;2065899;28;20500;-77
2023/04/10 02:42:37;;;;;;;10.82;8.70;;;;;;;14.80;100.00;100852.56;2069369;28;20034;-77
2023/04/10 02:43:59;;;;;;;12.48;8.57;;;;;;;14.82;100.00;100847.25;2065680;28;20053;-77
2023/04/10 02:45:23;;;;;;;11.55;8.38;;;;;;;14.84;100.00;100845.47;2062808;28;20038;-77
2023/04/10 02:46:48;;;;;;;10.50;8.20;;;;;;;14.86;100.00;100844.59;2065905;28;20057;-76
2023/04/10 02:48:10;;;;;;;10.65;8.25;;;;;;;14.87;100.00;100846.38;2065179;28;20129;-77
2023/04/10 02:49:33;;;;;;;12.07;9.23;;;;;;;14.87;100.00;100845.47;2066833;28;20046;-77
2023/04/10 02:51:01;;;;;;;9.50;8.00;;;;;;;14.88;100.00;100845.50;2068709;28;20066;-77
2023/04/10 02:52:24;;;;;;;10.60;8.02;;;;;;;14.90;100.00;100858.78;2060925;28;20109;-77
2023/04/10 02:53:47;;;;;;;11.30;8.50;;;;;;;14.91;100.00;100842.81;2069366;28;20042;-77
2023/04/10 02:55:19;;;;;;;11.98;8.77;;;;;;;14.90;100.00;100845.50;2061183;28;20073;-77
2023/04/10 02:56:41;;;;;;;10.52;7.68;;;;;;;14.89;100.00;100855.25;2063925;28;20046;-77
2023/04/10 02:58:03;;;;;;;11.50;7.90;;;;;;;14.89;100.00;100839.28;2066693;28;20670;-77
2023/04/10 02:59:25;;;;;;;11.25;8.07;;;;;;;14.89;100.00;100841.94;2074741;28;20049;-77
2023/04/10 03:00:51;;;;;;;11.32;8.10;;;;;;;14.90;100.00;100848.16;2067601;28;20054;-77
2023/04/10 03:02:32;;;;;;;10.35;8.13;;;;;;;14.88;100.00;100852.56;2070627;28;20050;-77
2023/04/10 03:03:59;;;;;;;10.27;7.82;;;;;;;14.86;100.00;100854.34;2068258;28;20089;-77
2023/04/10 03:05:28;;;;;;;10.57;8.25;;;;;;;14.86;100.00;100849.91;2076543;28;20092;-77
2023/04/10 03:06:50;;;;;;;10.32;7.53;;;;;;;14.86;100.00;100849.03;2065054;28;20494;-76
2023/04/10 03:08:12;;;;;;;10.52;7.65;;;;;;;14.87;100.00;100854.34;2061783;28;20047;-77
2023/04/10 03:09:34;;;;;;;12.13;8.15;;;;;;;14.89;100.00;100849.03;2067953;28;20437;-77
2023/04/10 03:10:55;;;;;;;9.80;7.82;;;;;;;14.91;100.00;100842.81;2074998;28;20489;-77
2023/04/10 03:12:19;;;;;;;10.48;7.43;;;;;;;14.93;100.00;100851.69;2061119;28;20058;-77
2023/04/10 03:13:41;;;;;;;10.95;8.40;;;;;;;14.96;100.00;100842.81;2074372;28;20056;-77
2023/04/10 03:15:03;;;;;;;10.40;8.43;;;;;;;14.97;100.00;100842.81;2069215;28;20103;-77
2023/04/10 03:16:25;;;;;;;13.20;8.15;;;;;;;14.98;100.00;100847.22;2065790;28;20064;-77
2023/04/10 03:17:48;;;;;;;12.10;8.48;;;;;;;14.98;100.00;100847.22;2066728;28;20058;-77
2023/04/10 03:19:11;;;;;;;10.65;7.65;;;;;;;14.99;100.00;100843.69;2074791;28;20601;-76
2023/04/10 03:20:33;;;;;;;10.20;7.75;;;;;;;15.01;100.00;100843.69;2070940;28;20140;-77
2023/04/10 03:21:55;;;;;;;10.43;7.90;;;;;;;15.00;100.00;100849.91;2076218;28;20405;-77
2023/04/10 03:23:16;;;;;;;14.43;8.82;;;;;;;14.99;100.00;100849.00;2070426;28;20041;-77
2023/04/10 03:24:39;;;;;;;12.50;8.85;;;;;;;14.98;100.00;100841.91;2067451;28;20516;-77
2023/04/10 03:26:01;;;;;;;12.18;7.43;;;;;;;14.98;100.00;100849.91;2082934;28;20048;-77
2023/04/10 03:27:25;;;;;;;11.45;7.88;;;;;;;14.96;100.00;100845.50;2062666;28;20093;-76
2023/04/10 03:28:48;;;;;;;11.73;8.18;;;;;;;14.93;100.00;100843.69;2064382;28;20054;-77
2023/04/10 03:30:09;;;;;;;11.57;7.78;;;;;;;14.93;100.00;100845.47;2066012;28;20470;-77
2023/04/10 03:31:36;;;;;;;10.80;8.57;;;;;;;14.93;100.00;100842.81;2068179;28;20050;-77
2023/04/10 03:32:59;;;;;;;12.40;8.77;;;;;;;14.94;100.00;100844.59;2078386;28;20114;-77
2023/04/10 03:34:21;;;;;;;10.70;8.10;;;;;;;14.98;100.00;100849.91;2076523;28;20533;-77
2023/04/10 03:35:44;;;;;;;9.93;7.25;;;;;;;14.99;100.00;100849.00;2070746;28;20620;-77
2023/04/10 03:37:06;;;;;;;11.60;8.48;;;;;;;14.98;100.00;100841.91;2068761;28;20055;-77
2023/04/10 03:38:28;;;;;;;9.60;8.13;;;;;;;14.98;100.00;100843.69;2074137;28;20033;-77
2023/04/10 03:39:50;;;;;;;9.35;7.68;;;;;;;14.98;100.00;100841.91;2077229;28;20056;-77
2023/04/10 03:41:12;;;;;;;10.50;6.97;;;;;;;14.98;100.00;100841.91;2073227;28;20050;-77
2023/04/10 03:42:34;;;;;;;11.82;7.78;;;;;;;14.98;100.00;100839.25;2068186;28;20050;-77
2023/04/10 03:43:57;;;;;;;10.48;7.40;;;;;;;15.00;100.00;100849.91;2067930;28;20038;-77
2023/04/10 03:45:19;;;;;;;9.43;6.97;;;;;;;15.00;100.00;100845.47;2068176;28;20077;-77
2023/04/10 03:46:42;;;;;;;9.63;7.78;;;;;;;15.01;100.00;100849.91;2075297;28;20049;-77
2023/04/10 03:48:06;;;;;;;10.48;8.23;;;;;;;15.02;100.00;100849.03;2080499;28;20136;-77
2023/04/10 03:49:38;;;;;;;10.45;7.45;;;;;;;15.00;100.00;100852.56;2073192;28;20046;-77
2023/04/10 03:51:01;;;;;;;10.05;7.18;;;;;;;14.99;100.00;100851.66;2070462;28;20080;-77
2023/04/10 03:52:24;;;;;;;9.80;8.02;;;;;;;15.00;100.00;100856.09;2071735;28;20057;-77
2023/04/10 03:53:46;;;;;;;10.50;7.35;;;;;;;14.99;100.00;100849.00;2078617;28;20045;-77
2023/04/10 03:55:11;;;;;;;10.38;7.43;;;;;;;14.98;100.00;100849.91;2082884;28;20049;-77
2023/04/10 03:56:33;;;;;;;11.00;7.80;;;;;;;14.96;100.00;100846.38;2089785;28;20473;-77
2023/04/10 03:57:55;;;;;;;10.65;7.65;;;;;;;14.95;100.00;100852.56;2078298;28;20497;-78
2023/04/10 03:59:19;;;;;;;9.27;7.60;;;;;;;14.94;100.00;100855.22;2076048;28;20045;-78
2023/04/10 04:00:40;;;;;;;11.68;8.15;;;;;;;14.92;100.00;100857.00;2068434;28;20084;-77
2023/04/10 04:02:09;;;;;;;16.92;8.82;;;;;;;14.90;100.00;100853.47;2069272;28;20044;-77
2023/04/10 04:03:33;;;;;;;11.55;8.57;;;;;;;14.89;100.00;100857.91;2075970;28;20080;-77
2023/04/10 04:04:56;;;;;;;12.30;8.90;;;;;;;14.89;100.00;100852.56;2070253;28;20429;-78
2023/04/10 04:06:38;;;;;;;;;;;;;;;14.86;100.00;100855.22;2073640;28;20053;-78
2023/04/10 04:08:15;;;;;;;10.45;8.82;;;;;;;14.85;100.00;100858.75;2073887;28;19921;-75
2023/04/10 04:09:55;;;;;;;12.68;9.45;;;;;;;14.86;100.00;100855.22;2072582;28;20053;-77
2023/04/10 04:11:32;;;;;;;13.23;9.73;;;;;;;14.88;100.00;100855.22;2071857;28;20061;-77
2023/04/10 04:13:02;;;;;;;14.48;9.35;;;;;;;14.91;100.00;100868.50;2070902;28;20136;-77
2023/04/10 04:14:50;;;;;;;12.13;8.95;;;;;;;14.91;100.00;100864.06;2084663;28;20333;-76
2023/04/10 04:16:31;;;;;;;12.68;8.80;;;;;;;14.94;100.00;100865.84;2074975;28;20058;-76
2023/04/10 04:18:29;;;;;;;11.52;8.43;;;;;;;14.97;100.00;100856.09;2082199;28;20064;-76
2023/04/10 04:20:13;;;;;;;11.10;7.95;;;;;;;14.98;100.00;100855.22;2073055;28;20060;-76
2023/04/10 04:21:56;;;;;;;9.50;7.90;;;;;;;14.98;100.00;100863.19;2072915;28;20474;-76
2023/04/10 04:23:37;;;;;;;11.15;7.32;;;;;;;14.98;100.00;100872.94;2083304;28;20497;-76
2023/04/10 04:25:31;;;;;;;9.27;7.40;;;;;;;14.99;100.00;100866.72;2072462;28;20050;-77
2023/04/10 04:26:59;;;;;;;11.52;7.28;;;;;;;15.06;100.00;100863.19;2076983;28;20490;-77
2023/04/10 04:28:39;;;;;;;13.38;8.38;;;;;;;15.08;100.00;100857.00;2079506;28;20033;-78
2023/04/10 04:30:16;;;;;;;11.75;7.68;;;;;;;15.07;100.00;100854.31;2071522;28;20077;-77
2023/04/10 04:31:51;;;;;;;10.32;7.75;;;;;;;15.09;100.00;100864.09;2084471;28;20045;-77
2023/04/10 04:33:32;;;;;;;11.43;8.27;;;;;;;15.11;100.00;100862.28;2079933;28;20049;-78
2023/04/10 04:35:02;;;;;;;11.90;7.65;;;;;;;15.14;100.00;100866.72;2078505;28;20536;-77
2023/04/10 04:36:44;;;;;;;10.60;7.93;;;;;;;15.19;100.00;100878.22;2078165;28;20524;-77
2023/04/10 04:38:30;;;;;;;9.00;7.28;;;;;;;15.21;100.00;100868.50;2080191;28;20501;-77
2023/04/10 04:40:15;;;;;;;9.50;7.50;;;;;;;15.22;100.00;100869.38;2079016;28;20053;-77
2023/04/10 04:41:53;;;;;;;10.20;7.40;;;;;;;15.25;100.00;100866.69;2072450;28;20050;-78
2023/04/10 04:43:33;;;;;;;10.15;7.57;;;;;;;15.27;100.00;100870.25;2080408;28;20049;-77
2023/04/10 04:45:23;;;;;;;12.50;8.30;;;;;;;15.29;100.00;100877.34;2084349;28;20060;-77
2023/04/10 04:47:11;;;;;;;12.15;7.38;;;;;;;15.34;100.00;100874.66;2080073;28;20052;-78
2023/04/10 04:49:00;;;;;;;11.98;7.25;;;;;;;15.39;100.00;100878.19;2080992;28;20041;-77
2023/04/10 04:50:40;;;;;;;10.38;8.20;;;;;;;15.45;100.00;100878.19;2064086;28;20050;-77
2023/04/10 04:52:24;;;;;;;12.38;8.00;;;;;;;15.49;100.00;100878.16;2070886;28;20564;-78
2023/04/10 04:54:13;;;;;;;12.48;8.55;;;;;;;15.54;100.00;100878.22;2079941;28;20045;-77
2023/04/10 04:55:35;;;;;;;10.85;8.18;;;;;;;15.58;100.00;100871.97;2072366;28;20085;-77
2023/04/10 04:57:18;;;;;;;13.23;8.45;;;;;;;15.59;100.00;100871.09;2072135;28;20071;-77
2023/04/10 04:59:00;;;;;;;11.85;7.85;;;;;;;15.58;100.00;100869.31;2082711;28;20037;-77
2023/04/10 05:00:49;;;;;;;9.13;7.45;;;;;;;15.59;100.00;100870.19;2081107;28;20060;-77
2023/04/10 05:02:45;;;;;;;11.48;7.82;;;;;;;15.56;100.00;100865.75;2071846;28;20409;-77
2023/04/10 05:04:25;;;;;;;10.85;7.70;;;;;;;15.56;100.00;100879.06;2071597;28;20053;-77
2023/04/10 05:06:02;;;;;;;13.25;7.55;;;;;;;15.57;100.00;100883.50;2063914;28;20050;-77
2023/04/10 05:08:05;;;;;;;8.73;7.13;;;;;;;15.55;100.00;100866.69;2072598;28;20061;-77
2023/04/10 05:09:39;;;;;;;9.70;7.85;;;;;;;15.53;100.00;100879.97;2071628;28;20085;-77
2023/04/10 05:11:20;;;;;;;10.90;6.50;;;;;;;15.52;100.00;100871.97;2072509;28;20046;-77
2023/04/10 05:13:11;;;;;;;9.32;7.45;;;;;;;15.49;100.00;100874.66;2079155;28;20037;-77
2023/04/10 05:15:11;;;;;;;13.68;8.40;;;;;;;15.48;100.00;100878.19;2055486;28;20581;-78
2023/04/10 05:16:33;;;;;;;9.55;7.18;;;;;;;15.52;100.00;100874.63;2048119;29;20062;-77
2023/04/10 05:18:18;;;;;;;14.70;7.25;;;;;;;15.55;100.00;100879.97;2048219;29;20055;-77
2023/04/10 05:19:52;;;;;;;9.95;7.53;;;;;;;15.58;100.00;100885.28;2047515;29;20059;-77
2023/04/10 05:21:34;;;;;;;12.50;7.05;;;;;;;15.63;100.00;100882.59;2080251;28;20064;-77
2023/04/10 05:23:18;;;;;;;13.43;8.27;;;;;;;15.64;100.00;100881.69;2087860;28;20053;-77
2023/04/10 05:24:39;;;;;;;13.55;10.05;;;;;;;15.64;100.00;100879.94;2086446;28;20071;-77
2023/04/10 05:26:11;;;;;;;12.75;8.90;;;;;;;15.64;100.00;100885.25;2070943;28;20514;-77
2023/04/10 05:28:05;;;;;;;10.52;7.90;;;;;;;15.66;100.00;100885.25;2072210;28;20104;-77
2023/04/10 05:29:47;;;;;;;13.00;9.32;;;;;;;15.70;100.00;100877.25;2075629;28;20083;-77
2023/04/10 05:31:32;;;;;;;13.20;8.13;;;;;;;15.84;100.00;100887.84;2080960;28;20110;-77
2023/04/10 05:33:08;;;;;;;14.60;9.15;;;;;;;16.00;100.00;100884.25;2071390;28;20077;-77
2023/04/10 05:34:30;;;;;;;12.35;8.75;;;;;;;16.16;100.00;100887.69;2075176;28;20054;-77
2023/04/10 05:36:05;;;;;;;12.40;8.07;;;;;;;16.34;100.00;100883.16;2071031;28;20061;-77
2023/04/10 05:37:35;;;;;;;9.93;7.55;;;;;;;16.49;100.00;100883.94;2075794;28;20064;-77
2023/04/10 05:39:22;;;;;;;11.38;6.72;;;;;;;16.57;100.00;100877.69;2079798;28;20065;-77
2023/04/10 05:40:50;;;;;;;11.10;7.63;;;;;;;16.60;100.00;100885.69;2075344;28;20041;-78
2023/04/10 05:42:31;;;;;;;9.80;6.50;;;;;;;16.56;100.00;100883.91;2080173;28;20176;-77
2023/04/10 05:44:22;;;;;;;9.35;6.80;;;;;;;16.55;100.00;100887.47;2079487;28;20568;-77
2023/04/10 05:45:53;;;;;;;12.07;6.97;;;;;;;16.58;100.00;100890.13;2074826;28;20066;-77
2023/04/10 05:47:53;;;;;;;10.27;7.85;;;;;;;16.60;100.00;100896.38;2059458;28;20042;-77
2023/04/10 05:49:23;;;;;;;11.90;7.90;;;;;;;16.63;100.00;100892.78;2061288;28;20046;-77
2023/04/10 05:51:08;;;;;;;11.63;8.10;;;;;;;16.65;100.00;100886.53;2063606;28;20446;-78
2023/04/10 05:52:49;;;;;;;11.63;8.13;;;;;;;16.65;100.00;100891.00;2060217;28;20562;-78
2023/04/10 05:54:35;;;;;;;10.25;8.55;;;;;;;16.64;100.00;100895.44;2075483;28;20045;-77
2023/04/10 05:56:17;;;;;;;10.73;8.43;;;;;;;16.62;100.00;100901.66;2079711;28;20053;-78
2023/04/10 05:58:12;;;;;;;10.05;7.65;;;;;;;16.63;100.00;100896.31;2079950;28;20053;-77
2023/04/10 05:59:54;;;;;;;;;;;;;;;16.57;100.00;100891.00;2072511;28;20050;-78
2023/04/10 06:01:35;;;;;;;10.60;7.07;;;;;;;16.54;100.00;100895.50;2078819;28;20320;-78
2023/04/10 06:02:58;;;;;;;12.15;7.47;;;;;;;16.51;100.00;100899.03;2074823;28;20079;-78
2023/04/10 06:04:23;;;;;;;10.93;7.70;;;;;;;16.49;100.00;100898.16;2061934;28;20053;-78
2023/04/10 06:05:49;;;;;;;11.10;7.50;;;;;;;16.54;100.00;100903.47;2077690;28;20136;-78
2023/04/10 06:07:11;;;;;;;13.63;8.52;;;;;;;16.62;100.00;100901.66;2072013;28;20076;-78
2023/04/10 06:08:34;;;;;;;13.20;9.00;;;;;;;16.71;100.00;100901.59;2077088;28;20406;-78
2023/04/10 06:09:58;;;;;;;12.55;8.95;;;;;;;16.80;100.00;100898.88;2070473;28;20061;-78
2023/04/10 06:11:21;;;;;;;12.57;10.15;;;;;;;16.85;100.00;100898.84;2069459;28;20046;-78
2023/04/10 06:12:47;;;;;;;13.18;10.40;;;;;;;16.86;100.00;100895.28;2074870;28;20095;-78
2023/04/10 06:14:10;;;;;;;15.13;9.68;;;;;;;16.86;100.00;100895.28;2062488;28;20076;-79
2023/04/10 06:15:37;;;;;;;15.45;11.18;;;;;;;16.82;100.00;100898.84;2066946;28;20046;-78
2023/04/10 06:16:59;;;;;;;12.95;9.50;;;;;;;16.78;100.00;100895.34;2069498;28;20041;-79
2023/04/10 06:18:21;;;;;;;11.02;7.88;;;;;;;16.72;100.00;100898.94;2066344;28;20045;-79
2023/04/10 06:19:44;;;;;;;10.25;6.78;;;;;;;16.66;100.00;100890.09;2073693;28;20672;-79
2023/04/10 06:21:07;;;;;;;9.70;7.05;;;;;;;16.58;100.00;100894.56;2078454;28;20575;-78
2023/04/10 06:22:29;;;;;;;11.85;9.07;;;;;;;16.52;100.00;100894.59;2074806;28;20060;-79
2023/04/10 06:23:52;;;;;;;14.43;9.52;;;;;;;16.52;100.00;100894.59;2069612;28;20113;-78
2023/04/10 06:25:16;;;;;;;11.73;8.90;;;;;;;16.56;100.00;100891.91;2074201;28;20045;-78
2023/04/10 06:26:38;;;;;;;12.77;6.88;;;;;;;16.64;100.00;100892.78;2061581;28;20069;-78
2023/04/10 06:28:01;;;;;;;12.15;7.38;;;;;;;16.72;100.00;100876.72;2069343;28;20053;-78
2023/04/10 06:29:23;;;;;;;9.43;6.43;;;;;;;16.89;100.00;100887.25;2069073;28;20056;-77
2023/04/10 06:30:46;;;;;;;11.45;7.57;;;;;;;17.28;100.00;100883.31;2070346;28;20054;-78
2023/04/10 06:32:08;;;;;;;11.35;5.78;;;;;;;17.65;100.00;100879.41;2067844;28;20161;-78
2023/04/10 06:33:34;;;;;;;10.18;6.95;;;;;;;17.85;100.00;100882.72;2067439;28;20160;-79
2023/04/10 06:34:58;;;;;;;10.55;6.63;;;;;;;17.87;100.00;100882.69;2065346;28;20516;-78
2023/04/10 06:36:21;;;;;;;9.38;7.00;;;;;;;17.89;100.00;100879.13;2065985;28;20461;-78
2023/04/10 06:37:51;;;;;;;13.00;8.15;;;;;;;17.91;100.00;100881.78;2080362;28;20161;-78
2023/04/10 06:39:13;;;;;;;10.25;7.00;;;;;;;17.92;100.00;100888.84;2065773;28;20076;-78
2023/04/10 06:40:37;;;;;;;8.70;6.25;;;;;;;17.91;100.00;100887.13;2068209;28;20426;-78
2023/04/10 06:42:00;;;;;;;8.77;6.20;;;;;;;17.87;100.00;100888.03;2070237;28;20050;-79
2023/04/10 06:43:40;;;;;;;8.48;5.95;;;;;;;17.75;100.00;100885.53;2069535;28;20065;-78